createdAt,value
2022-11-08T00:00:48.095Z,98170.75
2022-11-08T00:03:14.903Z,98176.22
2022-11-08T00:05:41.671Z,98156.88
2022-11-08T00:08:08.281Z,98157.66
2022-11-08T00:10:34.865Z,98159.09
2022-11-08T00:13:01.474Z,98157.50
2022-11-08T00:15:28.045Z,98163.00
2022-11-08T00:17:55.887Z,98115.59
2022-11-08T00:20:22.453Z,98161.44
2022-11-08T00:22:49.060Z,98158.50
2022-11-08T00:25:15.807Z,98149.75
2022-11-08T00:27:42.476Z,98158.91
2022-11-08T00:30:09.653Z,98152.66
2022-11-08T00:32:36.442Z,98158.06
2022-11-08T00:35:03.030Z,98162.88
2022-11-08T00:37:29.671Z,98160.03
2022-11-08T00:39:56.300Z,98147.22
2022-11-08T00:42:22.892Z,98148.16
2022-11-08T00:44:49.454Z,98142.50
2022-11-08T00:47:16.212Z,98110.16
2022-11-08T00:49:42.769Z,98145.81
2022-11-08T00:52:09.550Z,98144.84
2022-11-08T00:54:36.128Z,98143.22
2022-11-08T00:57:02.969Z,98106.75
2022-11-08T00:59:29.524Z,98141.81
2022-11-08T01:01:56.356Z,98138.09
2022-11-08T01:04:22.986Z,98139.28
2022-11-08T01:06:49.695Z,98131.09
2022-11-08T01:09:16.320Z,98140.25
2022-11-08T01:11:43.051Z,98137.16
2022-11-08T01:14:09.842Z,98134.72
2022-11-08T01:16:36.527Z,98138.78
2022-11-08T01:19:03.402Z,98143.25
2022-11-08T01:21:30.010Z,98143.59
2022-11-08T01:23:56.693Z,98140.53
2022-11-08T01:26:26.418Z,98130.25
2022-11-08T01:28:53.880Z,98145.84
2022-11-08T01:31:23.364Z,98149.97
2022-11-08T01:33:51.732Z,98143.69
2022-11-08T01:36:23.863Z,98140.00
2022-11-08T01:38:50.613Z,98143.22
2022-11-08T01:41:18.553Z,98087.03
2022-11-08T01:43:50.694Z,98138.91
2022-11-08T01:46:20.272Z,98138.47
2022-11-08T01:48:53.932Z,98136.47
2022-11-08T01:51:25.603Z,98138.72
2022-11-08T01:53:52.309Z,98133.19
2022-11-08T01:56:20.899Z,98137.22
2022-11-08T01:58:49.292Z,98129.06
2022-11-08T02:01:15.989Z,98122.44
2022-11-08T02:03:43.070Z,98114.13
2022-11-08T02:06:10.765Z,98122.56
2022-11-08T02:08:42.847Z,98113.66
2022-11-08T02:11:16.213Z,98110.25
2022-11-08T02:13:42.884Z,98107.84
2022-11-08T02:16:15.340Z,98104.19
2022-11-08T02:18:44.080Z,98109.09
2022-11-08T02:21:23.698Z,98103.84
2022-11-08T02:23:59.124Z,98101.28
2022-11-08T02:26:31.073Z,98105.25
2022-11-08T02:28:58.454Z,98082.03
2022-11-08T02:31:25.287Z,98106.25
2022-11-08T02:33:52.072Z,98095.91
2022-11-08T02:36:23.155Z,98086.16
2022-11-08T02:38:57.178Z,98043.41
2022-11-08T02:41:23.831Z,98090.75
2022-11-08T02:43:50.378Z,98083.03
2022-11-08T02:46:17.108Z,98091.31
2022-11-08T02:48:43.668Z,98085.81
2022-11-08T02:51:10.289Z,98085.50
2022-11-08T02:53:37.132Z,98089.72
2022-11-08T02:56:03.899Z,98085.22
2022-11-08T02:58:30.446Z,98088.19
2022-11-08T03:00:57.248Z,98090.59
2022-11-08T03:03:24.207Z,98099.34
2022-11-08T03:05:50.841Z,98090.91
2022-11-08T03:08:17.627Z,98091.28
2022-11-08T03:10:44.488Z,98095.72
2022-11-08T03:13:11.085Z,98093.47
2022-11-08T03:15:37.772Z,98101.91
2022-11-08T03:18:04.429Z,98051.84
2022-11-08T03:20:33.114Z,98088.09
2022-11-08T03:23:05.928Z,98080.00
2022-11-08T03:25:33.403Z,98082.19
2022-11-08T03:28:05.186Z,98092.81
2022-11-08T03:30:32.697Z,98086.13
2022-11-08T03:32:59.293Z,98086.03
2022-11-08T03:35:25.977Z,98083.66
2022-11-08T03:37:54.891Z,98099.44
2022-11-08T03:40:22.043Z,98090.00
2022-11-08T03:42:48.779Z,98097.81
2022-11-08T03:45:15.844Z,98061.34
2022-11-08T03:47:44.684Z,98094.38
2022-11-08T03:50:12.760Z,98089.63
2022-11-08T03:52:44.669Z,98088.03
2022-11-08T03:55:12.429Z,98081.50
2022-11-08T03:57:43.500Z,98098.63
2022-11-08T04:00:12.422Z,98086.75
2022-11-08T04:02:40.054Z,98089.09
2022-11-08T04:05:09.040Z,98089.25
2022-11-08T04:07:36.607Z,98093.44
2022-11-08T04:10:05.317Z,98090.03
2022-11-08T04:12:32.127Z,98093.69
2022-11-08T04:14:58.896Z,98097.09
2022-11-08T04:17:25.457Z,98094.31
2022-11-08T04:19:52.172Z,98095.59
2022-11-08T04:22:18.907Z,98077.34
2022-11-08T04:24:45.548Z,98085.09
2022-11-08T04:27:12.087Z,98088.81
2022-11-08T04:29:38.793Z,98075.56
2022-11-08T04:32:05.423Z,98073.91
2022-11-08T04:34:32.045Z,98081.44
2022-11-08T04:36:58.671Z,98067.41
2022-11-08T04:39:25.289Z,98076.72
2022-11-08T04:41:51.841Z,98070.78
2022-11-08T04:44:18.842Z,98069.59
2022-11-08T04:46:45.424Z,98071.22
2022-11-08T04:49:12.062Z,98060.88
2022-11-08T04:51:38.683Z,98062.00
2022-11-08T04:54:05.667Z,98061.91
2022-11-08T04:56:32.226Z,98056.66
2022-11-08T04:59:00.238Z,98056.50
2022-11-08T05:01:29.419Z,98054.22
2022-11-08T05:03:56.790Z,98049.13
2022-11-08T05:06:26.764Z,98048.81
2022-11-08T05:08:57.970Z,98042.91
2022-11-08T05:11:26.956Z,98043.06
2022-11-08T05:13:54.355Z,98038.16
2022-11-08T05:16:26.807Z,98048.81
2022-11-08T05:18:53.848Z,98038.09
2022-11-08T05:21:22.332Z,98026.47
2022-11-08T05:23:50.580Z,98028.16
2022-11-08T05:26:19.088Z,98031.06
2022-11-08T05:28:46.447Z,98035.81
2022-11-08T05:31:14.033Z,98033.41
2022-11-08T05:33:41.201Z,98026.16
2022-11-08T05:36:10.588Z,97993.50
2022-11-08T05:38:39.416Z,98022.84
2022-11-08T05:41:08.336Z,98021.22
2022-11-08T05:43:35.202Z,98020.22
2022-11-08T05:46:02.388Z,98022.56
2022-11-08T05:48:29.115Z,98021.59
2022-11-08T05:50:55.851Z,98021.59
2022-11-08T05:53:22.658Z,98016.84
2022-11-08T05:55:49.412Z,98015.19
2022-11-08T05:58:16.495Z,98014.72
2022-11-08T06:00:43.055Z,98022.31
2022-11-08T06:03:09.796Z,98006.91
2022-11-08T06:05:36.529Z,98019.84
2022-11-08T06:08:03.314Z,98012.16
2022-11-08T06:10:29.871Z,98023.97
2022-11-08T06:13:00.587Z,98016.97
2022-11-08T06:15:27.215Z,98011.28
2022-11-08T06:17:53.863Z,98023.72
2022-11-08T06:20:20.748Z,98028.84
2022-11-08T06:22:47.853Z,98029.47
2022-11-08T06:25:14.445Z,98032.25
2022-11-08T06:27:41.194Z,98027.31
2022-11-08T06:30:08.585Z,98023.06
2022-11-08T06:32:35.534Z,98022.91
2022-11-08T06:35:02.429Z,98020.75
2022-11-08T06:37:29.082Z,98023.19
2022-11-08T06:39:55.677Z,97995.84
2022-11-08T06:42:22.398Z,98020.78
2022-11-08T06:44:48.961Z,97960.91
2022-11-08T06:47:15.636Z,98032.13
2022-11-08T06:49:42.296Z,98029.47
2022-11-08T06:52:09.152Z,97989.38
2022-11-08T06:54:35.752Z,98019.38
2022-11-08T06:57:02.573Z,98012.97
2022-11-08T06:59:29.186Z,98022.34
2022-11-08T07:01:57.523Z,98029.03
2022-11-08T07:04:24.432Z,98020.66
2022-11-08T07:06:51.080Z,98020.31
2022-11-08T07:09:18.342Z,98009.44
2022-11-08T07:11:45.073Z,98011.66
2022-11-08T07:14:11.676Z,98013.44
2022-11-08T07:16:38.358Z,98005.94
2022-11-08T07:19:05.100Z,98007.19
2022-11-08T07:21:31.719Z,98005.34
2022-11-08T07:23:58.279Z,98006.66
2022-11-08T07:26:25.031Z,98003.78
2022-11-08T07:28:51.601Z,97995.84
2022-11-08T07:31:18.244Z,97993.16
2022-11-08T07:33:44.890Z,97988.53
2022-11-08T07:36:11.586Z,97998.31
2022-11-08T07:38:38.158Z,97989.38
2022-11-08T07:41:05.095Z,97988.28
2022-11-08T07:43:31.870Z,97990.38
2022-11-08T07:46:08.857Z,97985.13
2022-11-08T07:48:35.497Z,97993.34
2022-11-08T07:51:02.078Z,97989.81
2022-11-08T07:53:29.085Z,97992.19
2022-11-08T07:55:55.693Z,98000.88
2022-11-08T07:58:22.388Z,98000.78
2022-11-08T08:00:49.118Z,97992.63
2022-11-08T08:03:16.576Z,97998.69
2022-11-08T08:05:45.410Z,97999.69
2022-11-08T08:08:13.116Z,97984.81
2022-11-08T08:10:40.594Z,97954.03
2022-11-08T08:13:08.046Z,97948.22
2022-11-08T08:15:34.715Z,97983.66
2022-11-08T08:18:03.530Z,97865.44
2022-11-08T08:20:30.800Z,97991.78
2022-11-08T08:22:58.266Z,97991.50
2022-11-08T08:25:25.549Z,97989.06
2022-11-08T08:27:54.856Z,97965.22
2022-11-08T08:30:22.678Z,97980.91
2022-11-08T08:33:08.435Z,97966.59
2022-11-08T08:35:37.686Z,97964.97
2022-11-08T08:38:06.068Z,97969.00
2022-11-08T08:40:33.491Z,97925.22
2022-11-08T08:43:00.585Z,97960.78
2022-11-08T08:45:28.110Z,97964.09
2022-11-08T08:47:56.794Z,97978.03
2022-11-08T08:50:24.514Z,97978.00
2022-11-08T08:52:51.086Z,97964.56
2022-11-08T08:55:18.092Z,97966.44
2022-11-08T08:57:46.354Z,97974.97
2022-11-08T09:03:06.463Z,97960.25
2022-11-08T09:05:34.541Z,97963.91
2022-11-08T09:08:01.277Z,97960.03
2022-11-08T09:10:28.450Z,97964.34
2022-11-08T09:12:55.537Z,97953.38
2022-11-08T09:15:22.533Z,97962.41
2022-11-08T09:17:49.126Z,97958.34
2022-11-08T09:20:15.797Z,97917.16
2022-11-08T09:22:42.364Z,97957.03
2022-11-08T09:25:09.342Z,97949.94
2022-11-08T09:27:36.012Z,97959.91
2022-11-08T09:30:02.872Z,97944.41
2022-11-08T09:35:21.343Z,97952.72
2022-11-08T09:37:49.847Z,97966.69
2022-11-08T09:40:20.723Z,97969.22
2022-11-08T09:43:06.211Z,97970.50
2022-11-08T09:45:43.529Z,97969.84
2022-11-08T09:48:24.725Z,97967.09
2022-11-08T09:50:53.762Z,97964.53
2022-11-08T09:53:52.481Z,97979.22
2022-11-08T09:56:36.551Z,97971.09
2022-11-08T09:59:05.897Z,97968.88
2022-11-08T10:01:34.514Z,97976.78
2022-11-08T10:04:25.482Z,97979.25
2022-11-08T10:07:13.722Z,97983.88
2022-11-08T10:09:59.226Z,97973.47
2022-11-08T10:12:41.589Z,97979.50
2022-11-08T10:15:14.286Z,97970.69
2022-11-08T10:18:13.054Z,97967.41
2022-11-08T10:20:51.538Z,97962.66
2022-11-08T10:23:49.959Z,97963.44
2022-11-08T10:26:24.134Z,97960.47
2022-11-08T10:29:03.080Z,97942.84
2022-11-08T10:31:31.692Z,97907.34
2022-11-08T10:34:00.515Z,97941.44
2022-11-08T10:36:45.090Z,97928.72
2022-11-08T10:39:24.038Z,97924.63
2022-11-08T10:42:10.359Z,97924.91
2022-11-08T10:44:37.776Z,97918.66
2022-11-08T10:47:10.754Z,97911.78
2022-11-08T10:49:41.381Z,97905.63
2022-11-08T10:52:11.166Z,97889.84
2022-11-08T10:54:49.890Z,97889.91
2022-11-08T10:57:23.089Z,97890.75
2022-11-08T10:59:50.870Z,97882.03
2022-11-08T11:02:21.027Z,97870.59
2022-11-08T11:04:47.784Z,97874.84
2022-11-08T11:07:32.543Z,97862.50
2022-11-08T11:10:21.037Z,97866.66
2022-11-08T11:13:11.702Z,97859.06
2022-11-08T11:15:57.794Z,97859.66
2022-11-08T11:18:47.674Z,97857.91
2022-11-08T11:21:20.555Z,97860.78
2022-11-08T11:23:51.618Z,97856.19
2022-11-08T11:26:20.334Z,97855.25
2022-11-08T11:29:04.993Z,97846.72
2022-11-08T11:31:37.166Z,97839.97
2022-11-08T11:34:18.771Z,97839.78
2022-11-08T11:37:01.779Z,97846.25
2022-11-08T11:39:34.638Z,97839.97
2022-11-08T11:42:39.646Z,97847.63
2022-11-08T11:45:10.865Z,97845.31
2022-11-08T11:47:45.542Z,97837.78
2022-11-08T11:50:24.212Z,97799.28
2022-11-08T11:52:50.927Z,97841.13
2022-11-08T11:55:17.970Z,97839.09
2022-11-08T11:58:22.881Z,97837.88
2022-11-08T12:01:02.917Z,97835.25
2022-11-08T12:03:38.581Z,97833.50
2022-11-08T12:06:14.573Z,97838.47
2022-11-08T12:08:48.514Z,97843.69
2022-11-08T12:11:58.004Z,97834.78
2022-11-08T12:14:51.332Z,97833.38
2022-11-08T12:17:27.017Z,97828.31
2022-11-08T12:19:53.679Z,97837.47
2022-11-08T12:22:45.500Z,97829.34
2022-11-08T12:25:12.203Z,97825.75
2022-11-08T12:27:53.754Z,97824.28
2022-11-08T12:30:26.249Z,97826.47
2022-11-08T12:32:52.880Z,97807.59
2022-11-08T12:35:34.239Z,97804.25
2022-11-08T12:38:34.197Z,97819.53
2022-11-08T12:41:15.382Z,97820.41
2022-11-08T12:44:10.450Z,97807.56
2022-11-08T12:47:21.483Z,97794.09
2022-11-08T12:50:03.941Z,97804.78
2022-11-08T12:52:49.702Z,97799.47
2022-11-08T12:55:44.054Z,97796.34
2022-11-08T12:58:25.523Z,97803.66
2022-11-08T13:00:56.877Z,97804.59
2022-11-08T13:03:44.804Z,97805.22
2022-11-08T13:06:32.808Z,97796.53
2022-11-08T13:09:37.752Z,97791.00
2022-11-08T13:12:07.132Z,97794.13
2022-11-08T13:14:40.035Z,97780.56
2022-11-08T13:17:09.167Z,97784.59
2022-11-08T13:19:47.706Z,97776.94
2022-11-08T13:22:29.517Z,97784.13
2022-11-08T13:24:57.953Z,97785.94
2022-11-08T13:27:45.657Z,97790.53
2022-11-08T13:30:12.272Z,97793.88
2022-11-08T13:33:09.952Z,97782.09
2022-11-08T13:36:07.167Z,97783.59
2022-11-08T13:39:03.617Z,97791.34
2022-11-08T13:41:30.294Z,97779.22
2022-11-08T13:43:58.965Z,97782.09
2022-11-08T13:46:25.561Z,97781.50
2022-11-08T13:48:58.365Z,97783.50
2022-11-08T13:51:29.095Z,97782.56
2022-11-08T13:54:05.178Z,97784.69
2022-11-08T13:56:55.256Z,97794.50
2022-11-08T13:59:30.789Z,97780.81
2022-11-08T14:02:04.891Z,97787.16
2022-11-08T14:04:35.164Z,97780.13
2022-11-08T14:07:24.849Z,97783.38
2022-11-08T14:10:19.705Z,97781.13
2022-11-08T14:13:13.003Z,97780.56
2022-11-08T14:15:57.034Z,97768.63
2022-11-08T14:18:27.899Z,97774.78
2022-11-08T14:20:55.099Z,97782.06
2022-11-08T14:23:30.863Z,97780.25
2022-11-08T14:26:02.858Z,97773.91
2022-11-08T14:28:33.476Z,97767.97
2022-11-08T14:31:01.958Z,97776.81
2022-11-08T14:33:30.798Z,97776.38
2022-11-08T14:36:03.794Z,97752.94
2022-11-08T14:38:45.847Z,97782.06
2022-11-08T14:41:18.736Z,97787.34
2022-11-08T14:43:47.694Z,97790.84
2022-11-08T14:46:35.555Z,97792.34
2022-11-08T14:49:14.348Z,97794.09
2022-11-08T14:51:45.174Z,97792.84
2022-11-08T14:54:24.187Z,97779.97
2022-11-08T14:56:51.309Z,97779.50
2022-11-08T14:59:18.111Z,97791.84
2022-11-08T15:01:48.636Z,97775.78
2022-11-08T15:04:21.153Z,97783.00
2022-11-08T15:06:57.449Z,97773.34
2022-11-08T15:09:27.692Z,97777.59
2022-11-08T15:12:00.626Z,97784.13
2022-11-08T15:14:33.835Z,97777.66
2022-11-08T15:17:03.350Z,97775.66
2022-11-08T15:19:40.641Z,97769.44
2022-11-08T15:22:42.846Z,97769.16
2022-11-08T15:25:28.785Z,97760.34
2022-11-08T15:28:20.194Z,97762.91
2022-11-08T15:30:53.708Z,97765.28
2022-11-08T15:33:33.675Z,97763.16
2022-11-08T15:36:00.901Z,97762.63
2022-11-08T15:38:29.308Z,97732.91
2022-11-08T15:40:59.122Z,97762.72
2022-11-08T15:43:31.600Z,97771.81
2022-11-08T15:46:00.109Z,97772.84
2022-11-08T15:48:27.071Z,97776.78
2022-11-08T15:50:55.061Z,97774.09
2022-11-08T15:53:21.626Z,97769.34
2022-11-08T15:55:55.221Z,97771.47
2022-11-08T15:58:30.991Z,97760.16
2022-11-08T16:00:59.854Z,97759.75
2022-11-08T16:03:27.202Z,97745.69
2022-11-08T16:05:53.814Z,97750.50
2022-11-08T16:08:21.203Z,97753.69
2022-11-08T16:10:51.049Z,97756.22
2022-11-08T16:13:37.513Z,97749.88
2022-11-08T16:16:10.645Z,97756.25
2022-11-08T16:18:37.237Z,97748.94
2022-11-08T16:21:03.897Z,97745.28
2022-11-08T16:23:30.529Z,97743.91
2022-11-08T16:25:57.871Z,97747.56
2022-11-08T16:28:31.800Z,97751.31
2022-11-08T16:30:58.472Z,97747.22
2022-11-08T16:33:27.650Z,97751.47
2022-11-08T16:35:55.563Z,97760.56
2022-11-08T16:38:32.516Z,97744.16
2022-11-08T16:40:59.294Z,97754.09
2022-11-08T16:43:25.854Z,97755.41
2022-11-08T16:46:07.888Z,97761.13
2022-11-08T16:48:37.355Z,97760.41
2022-11-08T16:51:07.353Z,97760.81
2022-11-08T16:53:35.585Z,97756.41
2022-11-08T16:56:02.273Z,97760.84
2022-11-08T16:58:28.898Z,97760.56
2022-11-08T17:00:55.843Z,97765.53
2022-11-08T17:03:24.549Z,97767.03
2022-11-08T17:05:51.684Z,97769.56
2022-11-08T17:08:18.779Z,97771.91
2022-11-08T17:10:45.943Z,97772.34
2022-11-08T17:13:14.739Z,97777.88
2022-11-08T17:15:41.643Z,97785.00
2022-11-08T17:18:11.639Z,97777.84
2022-11-08T17:20:38.593Z,97749.00
2022-11-08T17:23:05.829Z,97776.09
2022-11-08T17:25:32.495Z,97777.25
2022-11-08T17:27:59.151Z,97788.69
2022-11-08T17:30:27.023Z,97785.00
2022-11-08T17:32:54.138Z,97782.44
2022-11-08T17:35:21.131Z,97785.00
2022-11-08T17:37:47.747Z,97782.28
2022-11-08T17:40:14.350Z,97770.50
2022-11-08T17:42:41.011Z,97785.00
2022-11-08T17:45:10.193Z,97783.44
2022-11-08T17:47:37.362Z,97782.78
2022-11-08T17:50:05.530Z,97783.03
2022-11-08T17:52:32.700Z,97792.69
2022-11-08T17:54:59.459Z,97783.09
2022-11-08T17:57:26.212Z,97790.56
2022-11-08T17:59:52.869Z,97787.78
2022-11-08T18:02:20.148Z,97783.88
2022-11-08T18:04:46.822Z,97793.13
2022-11-08T18:07:13.608Z,97785.22
2022-11-08T18:09:40.325Z,97793.78
2022-11-08T18:12:06.999Z,97800.56
2022-11-08T18:14:33.557Z,97792.38
2022-11-08T18:17:00.294Z,97797.28
2022-11-08T18:19:26.861Z,97806.72
2022-11-08T18:21:53.561Z,97805.28
2022-11-08T18:24:20.332Z,97799.00
2022-11-08T18:26:47.019Z,97800.72
2022-11-08T18:29:13.654Z,97800.53
2022-11-08T18:31:40.374Z,97798.34
2022-11-08T18:34:07.436Z,97807.09
2022-11-08T18:36:34.461Z,97809.75
2022-11-08T18:39:01.731Z,97803.19
2022-11-08T18:41:31.300Z,97805.19
2022-11-08T18:43:59.101Z,97810.91
2022-11-08T18:46:28.551Z,97808.69
2022-11-08T18:48:55.500Z,97807.25
2022-11-08T18:51:23.156Z,97764.19
2022-11-08T18:53:50.370Z,97797.50
2022-11-08T18:56:17.016Z,97802.75
2022-11-08T18:58:44.188Z,97794.66
2022-11-08T19:01:11.652Z,97804.63
2022-11-08T19:03:38.556Z,97774.19
2022-11-08T19:06:05.714Z,97807.03
2022-11-08T19:08:33.277Z,97809.91
2022-11-08T19:11:03.312Z,97811.34
2022-11-08T19:13:31.808Z,97812.13
2022-11-08T19:16:01.137Z,97803.41
2022-11-08T19:18:28.942Z,97807.09
2022-11-08T19:20:56.525Z,97805.63
2022-11-08T19:23:23.349Z,97787.13
2022-11-08T19:25:58.217Z,97799.28
2022-11-08T19:28:29.121Z,97801.25
2022-11-08T19:30:59.570Z,97807.59
2022-11-08T19:33:28.127Z,97802.53
2022-11-08T19:35:55.560Z,97798.06
2022-11-08T19:38:22.391Z,97796.22
2022-11-08T19:40:49.228Z,97809.97
2022-11-08T19:43:16.785Z,97804.94
2022-11-08T19:45:50.657Z,97783.00
2022-11-08T19:48:18.830Z,97810.00
2022-11-08T19:50:45.621Z,97811.25
2022-11-08T19:53:12.393Z,97804.91
2022-11-08T19:55:39.022Z,97798.22
2022-11-08T19:58:05.742Z,97803.31
2022-11-08T20:00:32.347Z,97807.13
2022-11-08T20:02:59.116Z,97805.41
2022-11-08T20:05:25.678Z,97802.59
2022-11-08T20:07:52.331Z,97802.75
2022-11-08T20:10:18.964Z,97810.03
2022-11-08T20:12:45.586Z,97805.53
2022-11-08T20:15:12.131Z,97811.66
2022-11-08T20:17:39.024Z,97810.78
2022-11-08T20:20:06.034Z,97803.44
2022-11-08T20:22:32.751Z,97803.28
2022-11-08T20:24:59.412Z,97802.25
2022-11-08T20:27:26.068Z,97808.56
2022-11-08T20:29:52.617Z,97803.09
2022-11-08T20:32:19.318Z,97803.75
2022-11-08T20:34:46.587Z,97809.31
2022-11-08T20:37:13.232Z,97802.81
2022-11-08T20:39:40.292Z,97798.84
2022-11-08T20:42:06.923Z,97788.31
2022-11-08T20:44:33.502Z,97804.22
2022-11-08T20:47:05.459Z,97806.19
2022-11-08T20:49:33.138Z,97809.09
2022-11-08T20:51:59.734Z,97803.03
2022-11-08T20:54:26.441Z,97792.28
2022-11-08T20:56:53.047Z,97801.47
2022-11-08T20:59:19.702Z,97806.75
2022-11-08T21:01:46.357Z,97790.59
2022-11-08T21:04:13.064Z,97760.34
2022-11-08T21:06:40.046Z,97783.88
2022-11-08T21:09:32.804Z,97783.44
2022-11-08T21:11:54.088Z,97775.50
2022-11-08T21:14:20.818Z,97783.03
2022-11-08T21:17:19.649Z,97791.34
2022-11-08T21:19:34.182Z,97787.28
2022-11-08T21:22:00.727Z,97788.72
2022-11-08T21:24:27.359Z,97793.63
2022-11-08T21:26:53.981Z,97792.75
2022-11-08T21:29:20.646Z,97794.97
2022-11-08T21:31:47.216Z,97783.78
2022-11-08T21:34:13.869Z,97787.63
2022-11-08T21:36:40.431Z,97787.53
2022-11-08T21:39:07.101Z,97775.34
2022-11-08T21:41:33.724Z,97777.16
2022-11-08T21:44:00.356Z,97774.94
2022-11-08T21:46:27.256Z,97782.84
2022-11-08T21:48:56.368Z,97785.72
2022-11-08T21:51:23.228Z,97783.94
2022-11-08T21:53:57.269Z,97789.66
2022-11-08T21:56:25.574Z,97785.75
2022-11-08T21:58:52.442Z,97790.06
2022-11-08T22:01:22.159Z,97801.63
2022-11-08T22:03:50.907Z,97799.19
2022-11-08T22:06:17.549Z,97799.00
2022-11-08T22:08:44.337Z,97810.56
2022-11-08T22:11:10.905Z,97797.56
2022-11-08T22:13:37.602Z,97766.94
2022-11-08T22:16:04.570Z,97804.88
2022-11-08T22:18:50.819Z,97797.34
2022-11-08T22:21:18.343Z,97792.50
2022-11-08T22:23:44.896Z,97795.56
2022-11-08T22:26:11.517Z,97805.91
2022-11-08T22:28:38.191Z,97805.72
2022-11-08T22:31:04.963Z,97817.28
2022-11-08T22:33:31.503Z,97812.63
2022-11-08T22:35:58.163Z,97808.13
2022-11-08T22:38:25.299Z,97809.34
2022-11-08T22:40:52.331Z,97802.84
2022-11-08T22:43:18.976Z,97794.53
2022-11-08T22:45:45.642Z,97806.53
2022-11-08T22:48:12.185Z,97805.69
2022-11-08T22:50:38.909Z,97769.31
2022-11-08T22:53:05.771Z,97804.44
2022-11-08T22:55:32.521Z,97804.22
2022-11-08T22:57:59.106Z,97809.72
2022-11-08T23:00:25.969Z,97801.53
2022-11-08T23:02:52.502Z,97795.84
2022-11-08T23:05:19.560Z,97794.16
2022-11-08T23:07:46.100Z,97797.41
2022-11-08T23:10:14.029Z,97796.16
2022-11-08T23:12:40.765Z,97787.63
2022-11-08T23:15:08.116Z,97781.53
2022-11-08T23:17:34.690Z,97804.88
2022-11-08T23:20:01.499Z,97800.19
2022-11-08T23:22:28.069Z,97799.81
2022-11-08T23:24:54.684Z,97801.44
2022-11-08T23:27:21.688Z,97804.44
2022-11-08T23:29:49.088Z,97794.44
2022-11-08T23:32:15.619Z,97800.16
2022-11-08T23:34:42.370Z,97811.94
2022-11-08T23:37:08.932Z,97818.47
2022-11-08T23:39:35.537Z,97776.69
2022-11-08T23:42:02.287Z,97812.38
2022-11-08T23:44:28.908Z,97787.63
2022-11-08T23:46:58.159Z,97820.97
2022-11-08T23:49:25.502Z,97815.88
2022-11-08T23:51:52.405Z,97821.34
2022-11-08T23:54:19.327Z,97812.97
2022-11-08T23:56:46.144Z,97771.63
2022-11-08T23:59:14.175Z,97809.56
